Nearby METAR Reports

 

KLXT - Lees Summit Muni, Missouri, USA
Distance from station: E 5mi, 9km
Updated: Sat, 20-Dec-2014 8:18am CST
Overcast
Overcast
 Wind from S
Wind: S 13 mph , 20 km/h
Temperature: 34°F , 1°C
Wind Chill: 25°F , -4°C
Dew Point: 30°F , -1°C
Humidity: 87%
Barometer: 30.20 inHg , 1022.7 hPa
Clouds: Overcast
Visibility: 10 miles , 16 km
Cloud details: Overcast 900 ft
2014/12/20 14:18 KLXT 201418Z AUTO 19011KT 10SM OVC009 01/M01 A3020 RMK AO2 T00111011 TSNO
KMKC - Kansas City/Dntn, Missouri, USA
Distance from station: NW 12mi, 19km
Updated: Sat, 20-Dec-2014 8:54am CST
Overcast
Overcast
 Wind from S
Wind: S 12 mph , 19 km/h
Temperature: 36°F , 2°C
Wind Chill: 28°F , -2°C
Dew Point: 30°F , -1°C
Humidity: 81%
Barometer: 30.19 inHg , 1022.4 hPa
Clouds: Overcast
Visibility: 9 miles , 14 km
Cloud details: Overcast 1200 ft
2014/12/20 14:54 KMKC 201454Z 18010KT 9SM OVC012 02/M01 A3019 RMK AO2 SLP229 T00171006 56002
 
KIXD - Olathe/Industria, Kansas, USA
Distance from station: WSW 25mi, 41km
Updated: Sat, 20-Dec-2014 8:53am CST
Clear
Clear
 Wind from S
Wind: S 14 mph , 22 km/h
Temperature: 34°F , 1°C
Wind Chill: 25°F , -4°C
Dew Point: 30°F , -1°C
Humidity: 87%
Barometer: 30.18 inHg , 1022 hPa
Clouds: Clear
Visibility: 7 miles , 11 km
2014/12/20 14:53 KIXD 201453Z 18012KT 7SM CLR 01/M01 A3018 RMK AO2 SLP228 T00111006 58003
KMCI - Kansas City/Intl, Missouri, USA
Distance from station: NW 26mi, 42km
Updated: Sat, 20-Dec-2014 8:53am CST
Mostly cloudy
Mostly cloudy
 Wind from S
Wind: S 13 mph , 20 km/h
Temperature: 34°F , 1°C
Wind Chill: 25°F , -4°C
Dew Point: 30°F , -1°C
Humidity: 87%
Barometer: 30.16 inHg , 1021.3 hPa
Clouds: Mostly cloudy
Visibility: 7 miles , 11 km
Cloud details: Partly cloudy 1400 ft
Mostly cloudy 2300 ft
2014/12/20 14:53 KMCI 201453Z 18011KT 7SM SCT014 BKN023 01/M01 A3016 RMK AO2 SLP223 T00111006 56000 $
 
KRCM - Warrensburg Skyh, Missouri, USA
Distance from station: ESE 38mi, 62km
Updated: Sat, 20-Dec-2014 8:55am CST
Mist, Overcast
Mist, Overcast
 Wind from SSW
Wind: SSW 7 mph , 11 km/h
Temperature: 34°F , 1°C
Wind Chill: 28°F , -2°C
Dew Point: 32°F , 0°C
Humidity: 93%
Barometer: 30.22 inHg , 1023.4 hPa
Summary: Mist
Clouds: Overcast
Visibility: 5 miles , 8 km
Cloud details: Partly cloudy 1000 ft
Overcast 1500 ft
2014/12/20 14:55 KRCM 201455Z AUTO 20006KT 5SM BR SCT010 OVC015 01/00 A3022 RMK AO2
KLWC - Lawrence, Kansas, USA
Distance from station: W 40mi, 65km
Updated: Sat, 20-Dec-2014 8:52am CST
Mist, Clear
Mist, Clear
 Wind from S
Wind: S 10 mph , 17 km/h
Temperature: 36°F , 2°C
Wind Chill: 29°F , -2°C
Dew Point: 30°F , -1°C
Humidity: 81%
Barometer: 30.18 inHg , 1022 hPa
Summary: Mist
Clouds: Clear
Visibility: 6 miles , 10 km
2014/12/20 14:52 KLWC 201452Z AUTO 18009KT 6SM BR CLR 02/M01 A3018 RMK AO2 SLP225 T00171006 50000
 
KSZL - Whiteman Afb, Missouri, USA
Distance from station: ESE 53mi, 86km
Updated: Sat, 20-Dec-2014 8:58am CST
Overcast
Overcast
 Wind from SW
Wind: SW 12 mph , 19 km/h
Temperature: 36°F , 2°C
Wind Chill: 28°F , -2°C
Dew Point: 34°F , 1°C
Humidity: 93%
Barometer: 30.22 inHg , 1023.4 hPa
Clouds: Overcast
Visibility: 10 miles , 16 km
Cloud details: Overcast 900 ft
2014/12/20 14:58 KSZL 201458Z AUTO 23010KT 10SM OVC009 02/01 A3022 RMK AO2 SLP243 T00220007 50007 $
KSTJ - St. Joseph, Missouri, USA
Distance from station: NNW 59mi, 95km
Updated: Sat, 20-Dec-2014 8:53am CST
Overcast
Overcast
 Wind from S
Wind: S 7 mph , 11 km/h
Temperature: 34°F , 1°C
Wind Chill: 28°F , -2°C
Dew Point: 30°F , -1°C
Humidity: 87%
Barometer: 30.17 inHg , 1021.7 hPa
Clouds: Overcast
Visibility: 8 miles , 13 km
Cloud details: Overcast 2200 ft
2014/12/20 14:53 KSTJ 201453Z AUTO 17006KT 8SM OVC022 01/M01 A3017 RMK AO2 SLP224 T00111006 53002
 
KGLY - Clinton, Missouri, USA
Distance from station: SE 61mi, 98km
Updated: Sat, 20-Dec-2014 8:55am CST
Mist, Overcast
Mist, Overcast
 Wind from SW
Wind: SW 7 mph , 11 km/h
Temperature: 36°F , 2°C
Wind Chill: 30°F , -1°C
Dew Point: 36°F , 2°C
Humidity: 100%
Barometer: 30.25 inHg , 1024.4 hPa
Summary: Mist
Clouds: Overcast
Visibility: 4 miles , 6 km
Cloud details: Overcast 800 ft
2014/12/20 14:55 KGLY 201455Z AUTO 22006KT 4SM BR OVC008 02/02 A3025 RMK AO2
KFOE - Topeka/Forbes, Kansas, USA
Distance from station: W 64mi, 103km
Updated: Sat, 20-Dec-2014 8:53am CST
Clear
Clear
 Wind from S
Wind: S 12 mph , 19 km/h
Temperature: 36°F , 2°C
Wind Chill: 28°F , -2°C
Dew Point: 30°F , -1°C
Humidity: 81%
Barometer: 30.15 inHg , 1021 hPa
Clouds: Clear
Visibility: 7 miles , 11 km
2014/12/20 14:53 KFOE 201453Z 18010KT 7SM CLR 02/M01 A3015 RMK AO2 SLP218 T00171006 55000
 
KDMO - Sedalia, Missouri, USA
Distance from station: ESE 72mi, 116km
Updated: Sat, 20-Dec-2014 8:53am CST
Overcast
Overcast
 Wind from SW
Wind: SW 7 mph , 11 km/h
Temperature: 39°F , 4°C
Wind Chill: 34°F , 1°C
Dew Point: 36°F , 2°C
Humidity: 87%
Barometer: 30.23 inHg , 1023.7 hPa
Clouds: Overcast
Visibility: 10 miles , 16 km
Cloud details: Overcast 1400 ft
2014/12/20 14:53 KDMO 201453Z AUTO 23006KT 10SM OVC014 04/02 A3023 RMK AO2 SLP243 T00390022 51007
KCDJ - Chillicothe, Missouri, USA
Distance from station: NE 74mi, 120km
Updated: Sat, 20-Dec-2014 8:52am CST

 Wind from S
Wind: S 3 mph , 6 km/h
Temperature: 34°F , 1°C
Dew Point: 34°F , 1°C
Humidity: 100%
Barometer: 30.21 inHg , 1023 hPa
2014/12/20 14:52 KCDJ 201452Z AUTO 17003KT 01/01 A3021 RMK AO1 SLP244 T00110006 51001
 
KFNB - Falls City/Brenn, Nebraska, USA
Distance from station: NW 96mi, 154km
Updated: Sat, 20-Dec-2014 8:53am CST
Overcast
Overcast
 Wind from S
Wind: S 6 mph , 9 km/h
Temperature: 34°F , 1°C
Wind Chill: 29°F , -2°C
Dew Point: 30°F , -1°C
Humidity: 87%
Barometer: 30.13 inHg , 1020.3 hPa
Clouds: Overcast
Visibility: 8 miles , 13 km
Cloud details: Overcast 900 ft
2014/12/20 14:53 KFNB 201453Z AUTO 17005KT 8SM OVC009 01/M01 A3013 RMK AO2 SLP213 T00061011 50003
KVER - Boonville, Missouri, USA
Distance from station: E 96mi, 154km
Updated: Sat, 20-Dec-2014 8:35am CST
Mist, Overcast
Mist, Overcast
 Wind from NNE
Wind: NNE 5 mph , 7 km/h
Temperature: 37°F , 3°C
Wind Chill: 33°F , 1°C
Dew Point: 37°F , 3°C
Humidity: 100%
Barometer: 30.23 inHg , 1023.7 hPa
Summary: Mist
Clouds: Overcast
Visibility: 3 miles , 5 km
Cloud details: Overcast 400 ft
2014/12/20 14:35 KVER 201435Z AUTO 03004KT 3SM BR OVC004 03/03 A3023 RMK AO2 T00300031